Time;durP1;ratioP1;P1;durP2;ratioP2;P2;SDS_P1;SDS_P2;PMS_P1;PMS_P2;Temp;Humidity;BMP_temperature;BMP_pressure;BME280_temperature;BME280_humidity;BME280_pressure;Samples;Min_cycle;Max_cycle;Signal;HPM_P1;HPM_P2
2023/10/24 00:02:02;;;;;;;12.8;6.6;;;;;;;6.05;90;;;;;
2023/10/24 00:13:02;;;;;;;12.8;6.6;;;;;;;6.03;89.77;;;;;
2023/10/24 00:23:02;;;;;;;12.8;6.6;;;;;;;6.01;89.46;;;;;
2023/10/24 00:33:02;;;;;;;15.1;6.8;;;;;;;6.01;89.19;;;;;
2023/10/24 00:44:02;;;;;;;15.1;6.8;;;;;;;5.94;88.92;;;;;
2023/10/24 00:54:02;;;;;;;15.1;6.8;;;;;;;5.85;88.71;;;;;
2023/10/24 01:04:03;;;;;;;11.5;5.7;;;;;;;5.81;88.38;;;;;
2023/10/24 01:15:04;;;;;;;11.5;5.7;;;;;;;5.68;87.86;;;;;
2023/10/24 01:26:02;;;;;;;11.5;5.7;;;;;;;5.55;87.81;;;;;
2023/10/24 01:36:02;;;;;;;11.5;6.3;;;;;;;5.43;88.92;;;;;
2023/10/24 01:46:02;;;;;;;11.5;6.3;;;;;;;5.42;88.46;;;;;
2023/10/24 01:57:02;;;;;;;11.5;6.3;;;;;;;5.43;88.26;;;;;
2023/10/24 02:07:02;;;;;;;9.8;6.1;;;;;;;5.51;88.61;;;;;
2023/10/24 02:17:03;;;;;;;9.8;6.1;;;;;;;5.47;88.78;;;;;
2023/10/24 02:28:02;;;;;;;9.8;6.1;;;;;;;5.57;89.33;;;;;
2023/10/24 02:38:02;;;;;;;12.1;6.5;;;;;;;5.67;89.33;;;;;
2023/10/24 02:48:02;;;;;;;12.1;6.5;;;;;;;5.63;89.26;;;;;
2023/10/24 02:58:04;;;;;;;12.1;6.5;;;;;;;5.65;88.94;;;;;
2023/10/24 03:09:04;;;;;;;11;6.3;;;;;;;5.77;88.75;;;;;
2023/10/24 03:19:04;;;;;;;11;6.3;;;;;;;5.69;88.54;;;;;
2023/10/24 03:30:04;;;;;;;10.4;5.7;;;;;;;5.82;88.74;;;;;
2023/10/24 03:40:05;;;;;;;10.4;5.7;;;;;;;5.78;88.24;;;;;
2023/10/24 03:51:04;;;;;;;10.4;5.7;;;;;;;5.72;88.4;;;;;
2023/10/24 04:02:04;;;;;;;10.9;5.8;;;;;;;5.78;89.38;;;;;
2023/10/24 04:12:04;;;;;;;10.9;5.8;;;;;;;5.84;89.72;;;;;
2023/10/24 04:22:04;;;;;;;10.9;5.8;;;;;;;5.97;89.94;;;;;
2023/10/24 04:33:04;;;;;;;12.8;6.9;;;;;;;6.01;89.8;;;;;
2023/10/24 04:43:04;;;;;;;12.8;6.9;;;;;;;5.93;90.7;;;;;
2023/10/24 04:54:04;;;;;;;12.8;6.9;;;;;;;6.11;90.36;;;;;
2023/10/24 05:04:04;;;;;;;11.5;6.9;;;;;;;6.06;90.24;;;;;
2023/10/24 05:14:04;;;;;;;11.5;6.9;;;;;;;6.2;90.03;;;;;
2023/10/24 05:24:04;;;;;;;11.5;6.9;;;;;;;6.26;89.19;;;;;
2023/10/24 05:34:04;;;;;;;13.3;6.4;;;;;;;6.28;89.62;;;;;
2023/10/24 05:45:04;;;;;;;13.3;6.4;;;;;;;6.38;89.3;;;;;
2023/10/24 05:56:04;;;;;;;13.3;6.4;;;;;;;6.56;89.09;;;;;
2023/10/24 06:06:04;;;;;;;12.3;6.4;;;;;;;6.55;88.73;;;;;
2023/10/24 06:17:04;;;;;;;12.3;6.4;;;;;;;6.4;89.44;;;;;
2023/10/24 06:28:04;;;;;;;13.1;7.8;;;;;;;6.37;90.22;;;;;
2023/10/24 06:39:04;;;;;;;13.1;7.8;;;;;;;6.81;90.85;;;;;
2023/10/24 06:50:04;;;;;;;13.1;7.8;;;;;;;7.08;91.47;;;;;
2023/10/24 07:01:04;;;;;;;11.7;7.7;;;;;;;7.6;91.51;;;;;
2023/10/24 07:12:04;;;;;;;11.7;7.7;;;;;;;8.36;89.86;;;;;
2023/10/24 07:22:04;;;;;;;11.7;7.7;;;;;;;8.81;89.38;;;;;
2023/10/24 07:33:04;;;;;;;14.8;9.1;;;;;;;8.88;88.59;;;;;
2023/10/24 07:43:04;;;;;;;14.8;9.1;;;;;;;9.02;87.43;;;;;
2023/10/24 07:53:04;;;;;;;14.8;9.1;;;;;;;9.22;87.38;;;;;
2023/10/24 08:03:04;;;;;;;15.6;9.3;;;;;;;9.82;87.47;;;;;
2023/10/24 08:14:05;;;;;;;15.6;9.3;;;;;;;10.14;86.64;;;;;
2023/10/24 08:25:04;;;;;;;15.6;9.3;;;;;;;10.5;85.41;;;;;
2023/10/24 08:36:04;;;;;;;16.3;9.1;;;;;;;10.91;85.51;;;;;
2023/10/24 08:46:04;;;;;;;16.3;9.1;;;;;;;11.06;84.08;;;;;
2023/10/24 08:56:06;;;;;;;16.3;9.1;;;;;;;11.47;82.54;;;;;
2023/10/24 09:07:04;;;;;;;13.5;10.7;;;;;;;11.75;82.1;;;;;
2023/10/24 09:17:04;;;;;;;13.5;10.7;;;;;;;12.55;79.76;;;;;
2023/10/24 09:27:04;;;;;;;13.5;10.7;;;;;;;12.72;79.69;;;;;
2023/10/24 09:37:04;;;;;;;16.7;11.1;;;;;;;12.5;78.64;;;;;
2023/10/24 09:48:04;;;;;;;16.7;11.1;;;;;;;12.52;79.48;;;;;
2023/10/24 09:59:04;;;;;;;18.3;14.2;;;;;;;12.48;80.51;;;;;
2023/10/24 10:10:04;;;;;;;18.3;14.2;;;;;;;12.29;80.95;;;;;
2023/10/24 10:20:04;;;;;;;18.3;14.2;;;;;;;12.79;80.13;;;;;
2023/10/24 10:31:04;;;;;;;16.4;13.8;;;;;;;12.87;79.62;;;;;
2023/10/24 10:41:04;;;;;;;16.4;13.8;;;;;;;13.18;79.03;;;;;
2023/10/24 10:52:04;;;;;;;16.4;13.8;;;;;;;13.61;79.1;;;;;
2023/10/24 11:02:05;;;;;;;23;15.9;;;;;;;14.19;77.75;;;;;
2023/10/24 11:12:04;;;;;;;23;15.9;;;;;;;14.66;76.22;;;;;
2023/10/24 11:23:04;;;;;;;23;15.9;;;;;;;14.47;75.46;;;;;
2023/10/24 11:33:05;;;;;;;19.9;13.5;;;;;;;14.94;74.96;;;;;
2023/10/24 11:44:04;;;;;;;19.9;13.5;;;;;;;15.29;75.04;;;;;
2023/10/24 11:54:04;;;;;;;19.9;13.5;;;;;;;16.05;72.21;;;;;
2023/10/24 12:05:04;;;;;;;16.6;11.9;;;;;;;15.77;73.39;;;;;
2023/10/24 12:16:04;;;;;;;16.6;11.9;;;;;;;16.14;71.53;;;;;
2023/10/24 12:26:04;;;;;;;16.6;11.9;;;;;;;16.16;70.42;;;;;
2023/10/24 12:37:04;;;;;;;12.6;7.7;;;;;;;16.27;70.87;;;;;
2023/10/24 12:47:04;;;;;;;12.6;7.7;;;;;;;16.18;72.36;;;;;
2023/10/24 12:58:04;;;;;;;8.4;5.7;;;;;;;15.67;75.23;;;;;
2023/10/24 13:08:04;;;;;;;8.4;5.7;;;;;;;15.78;75.4;;;;;
2023/10/24 13:19:05;;;;;;;8.4;5.7;;;;;;;15.57;77.19;;;;;
2023/10/24 13:30:04;;;;;;;11.3;7.2;;;;;;;15.38;77.94;;;;;
2023/10/24 13:40:04;;;;;;;11.3;7.2;;;;;;;15.16;79.22;;;;;
2023/10/24 13:50:04;;;;;;;11.3;7.2;;;;;;;15.17;79.47;;;;;
2023/10/24 14:01:04;;;;;;;12.6;6.8;;;;;;;15.12;79.99;;;;;
2023/10/24 14:11:06;;;;;;;12.6;6.8;;;;;;;15;80.93;;;;;
2023/10/24 14:22:05;;;;;;;12.6;6.8;;;;;;;14.92;81.66;;;;;
2023/10/24 14:32:04;;;;;;;12.6;9.5;;;;;;;14.69;82.88;;;;;
2023/10/24 14:43:04;;;;;;;12.6;9.5;;;;;;;14.74;82.69;;;;;
2023/10/24 14:53:05;;;;;;;12.6;9.5;;;;;;;14.69;82.7;;;;;
2023/10/24 15:03:06;;;;;;;12.2;8.4;;;;;;;14.51;83.85;;;;;
2023/10/24 15:13:05;;;;;;;12.2;8.4;;;;;;;14.36;84.49;;;;;
2023/10/24 15:24:05;;;;;;;12.2;8.4;;;;;;;14.12;85.64;;;;;
2023/10/24 15:34:05;;;;;;;11.7;9.2;;;;;;;14.01;86.56;;;;;
2023/10/24 15:44:05;;;;;;;11.7;9.2;;;;;;;14.05;85.93;;;;;
2023/10/24 15:54:05;;;;;;;11.7;9.2;;;;;;;13.81;87.51;;;;;
2023/10/24 16:05:05;;;;;;;15.7;12.4;;;;;;;13.74;87.67;;;;;
2023/10/24 16:16:05;;;;;;;15.7;12.4;;;;;;;13.84;86.92;;;;;
2023/10/24 16:26:06;;;;;;;15.7;12.4;;;;;;;13.74;86.5;;;;;
2023/10/24 16:36:05;;;;;;;16.9;10.5;;;;;;;13.56;87.05;;;;;
2023/10/24 16:47:05;;;;;;;16.9;10.5;;;;;;;13.13;89.94;;;;;
2023/10/24 16:58:05;;;;;;;14.3;10.9;;;;;;;13.14;89.44;;;;;
2023/10/24 17:08:05;;;;;;;14.3;10.9;;;;;;;13.07;89.42;;;;;
2023/10/24 17:19:05;;;;;;;14.3;10.9;;;;;;;13.12;89.48;;;;;
2023/10/24 17:29:05;;;;;;;16.1;10.8;;;;;;;13.03;90;;;;;
2023/10/24 17:40:06;;;;;;;16.1;10.8;;;;;;;13.02;90.85;;;;;
2023/10/24 17:50:05;;;;;;;16.1;10.8;;;;;;;13.06;90.73;;;;;
2023/10/24 18:01:05;;;;;;;20.6;12.2;;;;;;;13.14;90.34;;;;;
2023/10/24 18:12:07;;;;;;;20.6;12.2;;;;;;;13.27;90.21;;;;;
2023/10/24 18:22:05;;;;;;;20.6;12.2;;;;;;;13.35;90;;;;;
2023/10/24 18:33:05;;;;;;;20.4;15;;;;;;;13.33;89.48;;;;;
2023/10/24 18:44:07;;;;;;;20.4;15;;;;;;;13.08;90.17;;;;;
2023/10/24 18:55:05;;;;;;;20.4;15;;;;;;;13.23;89.9;;;;;
2023/10/24 19:05:05;;;;;;;22.7;16.5;;;;;;;13.28;89.34;;;;;
2023/10/24 19:16:05;;;;;;;22.7;16.5;;;;;;;13.28;89.53;;;;;
2023/10/24 19:26:06;;;;;;;22.7;16.5;;;;;;;13.4;89.65;;;;;
2023/10/24 19:36:05;;;;;;;21.6;16.6;;;;;;;13.49;89.54;;;;;
2023/10/24 19:47:05;;;;;;;21.6;16.6;;;;;;;13.44;89.23;;;;;
2023/10/24 19:57:05;;;;;;;21.6;16.6;;;;;;;13.55;89.54;;;;;
2023/10/24 20:08:05;;;;;;;22.6;18.4;;;;;;;13.49;89.4;;;;;
2023/10/24 20:19:05;;;;;;;22.6;18.4;;;;;;;13.54;89.42;;;;;
2023/10/24 20:30:05;;;;;;;23.3;17.6;;;;;;;13.36;90.26;;;;;
2023/10/24 20:40:06;;;;;;;23.3;17.6;;;;;;;13.35;91.15;;;;;
2023/10/24 20:51:05;;;;;;;23.3;17.6;;;;;;;13.46;91.32;;;;;
2023/10/24 21:02:06;;;;;;;23.1;13;;;;;;;13.43;91.45;;;;;
2023/10/24 21:13:05;;;;;;;23.1;13;;;;;;;13.59;91.09;;;;;
2023/10/24 21:24:05;;;;;;;23.1;13;;;;;;;13.6;90.89;;;;;
2023/10/24 21:34:07;;;;;;;22.5;16.9;;;;;;;13.69;90.63;;;;;
2023/10/24 21:45:05;;;;;;;22.5;16.9;;;;;;;13.61;90.83;;;;;
2023/10/24 21:55:06;;;;;;;22.5;16.9;;;;;;;13.57;90.78;;;;;
2023/10/24 22:05:05;;;;;;;14.4;9.6;;;;;;;13.49;91.17;;;;;
2023/10/24 22:16:05;;;;;;;14.4;9.6;;;;;;;13.54;90.92;;;;;
2023/10/24 22:27:05;;;;;;;14.4;9.6;;;;;;;13.4;91.24;;;;;
2023/10/24 22:37:05;;;;;;;14.4;8.3;;;;;;;13.42;91.25;;;;;
2023/10/24 22:48:05;;;;;;;14.4;8.3;;;;;;;13.39;91.32;;;;;
2023/10/24 22:58:05;;;;;;;15;8.3;;;;;;;13.27;91.86;;;;;
2023/10/24 23:09:05;;;;;;;15;8.3;;;;;;;13.3;91.7;;;;;
2023/10/24 23:20:05;;;;;;;15;8.3;;;;;;;13.45;91.32;;;;;
2023/10/24 23:31:05;;;;;;;14.4;8.1;;;;;;;13.58;91.23;;;;;
2023/10/24 23:42:05;;;;;;;14.4;8.1;;;;;;;13.81;90.23;;;;;
2023/10/24 23:52:05;;;;;;;14.4;8.1;;;;;;;13.85;90.21;;;;;
